createdAt,value
2024-04-10T00:00:19.674Z,9.54
2024-04-10T00:01:19.682Z,9.50
2024-04-10T00:02:19.717Z,9.56
2024-04-10T00:03:22.064Z,9.46
2024-04-10T00:04:20.677Z,9.43
2024-04-10T00:05:19.897Z,9.65
2024-04-10T00:06:19.746Z,9.55
2024-04-10T00:07:51.584Z,9.56
2024-04-10T00:08:19.643Z,9.46
2024-04-10T00:09:19.592Z,9.48
2024-04-10T00:10:19.651Z,9.58
2024-04-10T00:11:19.738Z,9.62
2024-04-10T00:12:19.629Z,9.51
2024-04-10T00:13:19.569Z,9.54
2024-04-10T00:14:19.590Z,9.51
2024-04-10T00:15:19.548Z,9.64
2024-04-10T00:16:19.570Z,9.59
2024-04-10T00:17:19.655Z,9.46
2024-04-10T00:18:19.600Z,9.55
2024-04-10T00:19:19.625Z,9.50
2024-04-10T00:20:19.583Z,9.51
2024-04-10T00:21:19.528Z,9.54
2024-04-10T00:22:19.508Z,9.51
2024-04-10T00:23:19.567Z,9.58
2024-04-10T00:24:19.482Z,9.44
2024-04-10T00:25:19.493Z,9.47
2024-04-10T00:26:19.503Z,9.51
2024-04-10T00:27:19.455Z,9.47
2024-04-10T00:28:19.454Z,9.54
2024-04-10T00:29:19.469Z,9.46
2024-04-10T00:30:19.468Z,9.46
2024-04-10T00:31:19.423Z,9.47
2024-04-10T00:32:19.608Z,9.55
2024-04-10T00:33:19.560Z,9.48
2024-04-10T00:34:19.593Z,9.51
2024-04-10T00:35:19.468Z,9.43
2024-04-10T00:36:19.388Z,9.46
2024-04-10T00:37:19.373Z,9.48
2024-04-10T00:38:19.388Z,9.41
2024-04-10T00:39:20.381Z,9.39
2024-04-10T00:40:19.349Z,9.46
2024-04-10T00:41:19.395Z,9.44
2024-04-10T00:42:19.330Z,9.36
2024-04-10T00:43:19.322Z,9.51
2024-04-10T00:44:19.412Z,9.50
2024-04-10T00:45:19.320Z,9.47
2024-04-10T00:46:19.306Z,9.46
2024-04-10T00:47:19.427Z,9.54
2024-04-10T00:48:19.540Z,9.50
2024-04-10T00:49:19.370Z,9.47
2024-04-10T00:50:19.386Z,9.50
2024-04-10T00:51:19.303Z,9.41
2024-04-10T00:52:19.261Z,9.31
2024-04-10T00:53:19.336Z,9.43
2024-04-10T00:54:19.295Z,9.43
2024-04-10T00:55:19.252Z,9.46
2024-04-10T00:56:22.166Z,9.44
2024-04-10T00:57:20.221Z,9.32
2024-04-10T00:58:19.267Z,9.39
2024-04-10T00:59:19.454Z,9.32
2024-04-10T01:00:19.195Z,9.29
2024-04-10T01:01:19.244Z,9.29
2024-04-10T01:02:19.249Z,9.25
2024-04-10T01:03:19.292Z,9.25
2024-04-10T01:04:19.192Z,9.26
2024-04-10T01:05:19.196Z,9.23
2024-04-10T01:06:19.146Z,9.26
2024-04-10T01:07:19.163Z,9.25
2024-04-10T01:08:19.196Z,9.29
2024-04-10T01:09:19.182Z,9.13
2024-04-10T01:10:19.114Z,9.22
2024-04-10T01:11:19.387Z,9.13
2024-04-10T01:12:19.155Z,9.21
2024-04-10T01:13:19.112Z,9.14
2024-04-10T01:14:19.105Z,9.18
2024-04-10T01:15:19.079Z,9.23
2024-04-10T01:16:19.187Z,9.11
2024-04-10T01:17:19.174Z,9.04
2024-04-10T01:18:19.139Z,9.00
2024-04-10T01:19:19.045Z,9.19
2024-04-10T01:20:19.119Z,9.04
2024-04-10T01:21:19.039Z,9.13
2024-04-10T01:22:19.058Z,9.02
2024-04-10T01:23:19.165Z,9.16
2024-04-10T01:24:19.010Z,9.06
2024-04-10T01:25:19.044Z,9.13
2024-04-10T01:26:19.181Z,9.08
2024-04-10T01:27:19.054Z,9.13
2024-04-10T01:28:18.979Z,9.14
2024-04-10T01:29:19.116Z,9.11
2024-04-10T01:30:18.969Z,9.10
2024-04-10T01:31:18.996Z,9.11
2024-04-10T01:32:19.144Z,9.03
2024-04-10T01:33:19.116Z,9.14
2024-04-10T01:34:19.049Z,9.11
2024-04-10T01:35:18.967Z,9.10
2024-04-10T01:36:18.944Z,9.03
2024-04-10T01:37:18.932Z,9.13
2024-04-10T01:38:18.915Z,9.02
2024-04-10T01:39:18.897Z,9.06
2024-04-10T01:40:18.938Z,9.13
2024-04-10T01:41:19.001Z,9.06
2024-04-10T01:42:18.890Z,9.10
2024-04-10T01:43:18.958Z,9.08
2024-04-10T01:44:18.929Z,8.99
2024-04-10T01:45:18.878Z,9.13
2024-04-10T01:46:18.831Z,9.02
2024-04-10T01:47:18.919Z,9.04
2024-04-10T01:48:18.939Z,8.97
2024-04-10T01:49:18.889Z,9.03
2024-04-10T01:50:18.948Z,9.04
2024-04-10T01:51:18.800Z,8.99
2024-04-10T01:52:18.792Z,8.99
2024-04-10T01:53:18.886Z,8.97
2024-04-10T01:54:18.814Z,8.97
2024-04-10T01:55:18.794Z,9.02
2024-04-10T01:56:18.826Z,9.00
2024-04-10T01:57:18.755Z,9.04
2024-04-10T01:58:18.744Z,9.02
2024-04-10T01:59:18.829Z,9.02
2024-04-10T02:00:18.748Z,8.99
2024-04-10T02:01:18.743Z,9.10
2024-04-10T02:02:18.846Z,9.00
2024-04-10T02:03:18.802Z,9.00
2024-04-10T02:04:18.753Z,8.99
2024-04-10T02:05:18.748Z,8.99
2024-04-10T02:06:18.686Z,9.08
2024-04-10T02:07:18.691Z,8.97
2024-04-10T02:08:18.825Z,8.95
2024-04-10T02:09:18.695Z,9.03
2024-04-10T02:10:18.685Z,9.00
2024-04-10T02:11:18.732Z,8.97
2024-04-10T02:12:18.715Z,9.00
2024-04-10T02:13:18.653Z,9.00
2024-04-10T02:14:18.675Z,8.89
2024-04-10T02:15:18.638Z,8.94
2024-04-10T02:16:18.695Z,8.97
2024-04-10T02:17:18.599Z,9.02
2024-04-10T02:18:18.708Z,8.94
2024-04-10T02:19:18.588Z,9.03
2024-04-10T02:20:18.639Z,8.95
2024-04-10T02:21:18.617Z,8.92
2024-04-10T02:22:18.585Z,8.95
2024-04-10T02:23:18.603Z,8.89
2024-04-10T02:24:18.545Z,8.94
2024-04-10T02:25:18.550Z,8.99
2024-04-10T02:26:18.566Z,8.94
2024-04-10T02:27:18.567Z,8.95
2024-04-10T02:28:18.514Z,9.06
2024-04-10T02:29:18.567Z,9.03
2024-04-10T02:30:18.501Z,8.99
2024-04-10T02:31:18.503Z,9.04
2024-04-10T02:32:18.677Z,9.00
2024-04-10T02:33:18.605Z,9.02
2024-04-10T02:34:18.668Z,9.03
2024-04-10T02:35:18.617Z,9.08
2024-04-10T02:36:18.497Z,9.04
2024-04-10T02:37:18.475Z,9.00
2024-04-10T02:38:18.500Z,9.04
2024-04-10T02:39:18.434Z,9.04
2024-04-10T02:40:18.437Z,8.94
2024-04-10T02:41:18.533Z,9.00
2024-04-10T02:42:18.423Z,8.97
2024-04-10T02:43:18.456Z,9.02
2024-04-10T02:44:18.432Z,9.03
2024-04-10T02:45:18.393Z,9.00
2024-04-10T02:46:18.431Z,9.10
2024-04-10T02:47:18.430Z,9.00
2024-04-10T02:48:18.383Z,9.03
2024-04-10T02:49:18.371Z,9.10
2024-04-10T02:50:18.428Z,9.02
2024-04-10T02:51:18.380Z,9.06
2024-04-10T02:52:18.357Z,9.11
2024-04-10T02:53:18.371Z,9.04
2024-04-10T02:54:18.329Z,9.08
2024-04-10T02:55:18.350Z,9.04
2024-04-10T02:56:18.359Z,9.06
2024-04-10T02:57:18.306Z,9.08
2024-04-10T02:58:18.302Z,9.03
2024-04-10T02:59:18.322Z,9.04
2024-04-10T03:00:18.300Z,9.03
2024-04-10T03:01:18.324Z,9.11
2024-04-10T03:02:18.388Z,9.03
2024-04-10T03:03:18.324Z,9.00
2024-04-10T03:04:18.255Z,9.03
2024-04-10T03:05:18.333Z,9.03
2024-04-10T03:06:18.249Z,9.03
2024-04-10T03:07:18.242Z,9.06
2024-04-10T03:08:18.297Z,9.03
2024-04-10T03:09:18.206Z,9.00
2024-04-10T03:10:18.262Z,9.06
2024-04-10T03:11:18.323Z,8.99
2024-04-10T03:12:18.269Z,9.00
2024-04-10T03:13:18.189Z,9.06
2024-04-10T03:14:18.423Z,8.94
2024-04-10T03:15:18.222Z,8.97
2024-04-10T03:16:18.211Z,9.00
2024-04-10T03:17:18.305Z,9.00
2024-04-10T03:18:18.257Z,9.08
2024-04-10T03:19:18.187Z,8.99
2024-04-10T03:20:18.315Z,9.04
2024-04-10T03:21:18.126Z,8.88
2024-04-10T03:22:18.134Z,8.95
2024-04-10T03:23:18.139Z,8.82
2024-04-10T03:24:18.182Z,8.95
2024-04-10T03:25:18.097Z,8.92
2024-04-10T03:26:18.150Z,8.84
2024-04-10T03:27:18.087Z,8.92
2024-04-10T03:28:18.094Z,8.84
2024-04-10T03:29:18.138Z,8.91
2024-04-10T03:30:18.067Z,8.88
2024-04-10T03:31:18.067Z,8.74
2024-04-10T03:32:18.075Z,8.70
2024-04-10T03:33:18.145Z,8.84
2024-04-10T03:34:18.095Z,8.79
2024-04-10T03:35:18.114Z,8.78
2024-04-10T03:36:18.023Z,8.71
2024-04-10T03:37:18.006Z,8.84
2024-04-10T03:38:18.104Z,8.79
2024-04-10T03:39:17.992Z,8.66
2024-04-10T03:40:18.003Z,8.73
2024-04-10T03:41:18.019Z,8.74
2024-04-10T03:42:17.969Z,8.69
2024-04-10T03:43:18.018Z,8.60
2024-04-10T03:44:17.985Z,8.66
2024-04-10T03:45:17.987Z,8.70
2024-04-10T03:46:17.941Z,8.66
2024-04-10T03:47:18.027Z,8.64
2024-04-10T03:48:18.120Z,8.60
2024-04-10T03:49:17.945Z,8.63
2024-04-10T03:50:19.473Z,8.73
2024-04-10T03:51:18.981Z,8.76
2024-04-10T03:52:17.918Z,8.60
2024-04-10T03:53:17.906Z,8.56
2024-04-10T03:54:17.878Z,8.61
2024-04-10T03:55:17.861Z,8.56
2024-04-10T03:56:18.833Z,8.51
2024-04-10T03:57:17.893Z,8.58
2024-04-10T03:58:17.856Z,8.48
2024-04-10T03:59:17.881Z,8.55
2024-04-10T04:00:17.845Z,8.60
2024-04-10T04:01:17.906Z,8.52
2024-04-10T04:02:17.892Z,8.52
2024-04-10T04:03:17.922Z,8.53
2024-04-10T04:04:17.875Z,8.60
2024-04-10T04:05:17.912Z,8.56
2024-04-10T04:06:17.962Z,8.53
2024-04-10T04:07:17.800Z,8.53
2024-04-10T04:08:17.901Z,8.42
2024-04-10T04:09:17.777Z,8.51
2024-04-10T04:10:17.748Z,8.51
2024-04-10T04:11:17.870Z,8.48
2024-04-10T04:12:20.727Z,8.42
2024-04-10T04:13:17.723Z,8.42
2024-04-10T04:14:17.782Z,8.41
2024-04-10T04:15:17.740Z,8.37
2024-04-10T04:16:17.787Z,8.34
2024-04-10T04:17:17.735Z,8.45
2024-04-10T04:18:18.146Z,8.31
2024-04-10T04:19:17.679Z,8.28
2024-04-10T04:20:17.738Z,8.36
2024-04-10T04:21:17.692Z,8.44
2024-04-10T04:22:17.660Z,8.36
2024-04-10T04:23:17.734Z,8.42
2024-04-10T04:24:17.639Z,8.34
2024-04-10T04:25:17.665Z,8.34
2024-04-10T04:26:17.694Z,8.37
2024-04-10T04:27:17.610Z,8.31
2024-04-10T04:28:17.602Z,8.36
2024-04-10T04:29:17.619Z,8.33
2024-04-10T04:30:17.659Z,8.31
2024-04-10T04:31:17.596Z,8.33
2024-04-10T04:32:17.678Z,8.33
2024-04-10T04:33:17.678Z,8.33
2024-04-10T04:34:17.757Z,8.24
2024-04-10T04:35:17.631Z,8.30
2024-04-10T04:36:17.544Z,8.27
2024-04-10T04:37:17.537Z,8.23
2024-04-10T04:38:17.643Z,8.20
2024-04-10T04:39:17.540Z,8.15
2024-04-10T04:40:17.536Z,8.18
2024-04-10T04:41:17.539Z,8.12
2024-04-10T04:42:17.500Z,8.10
2024-04-10T04:43:17.498Z,8.20
2024-04-10T04:44:17.568Z,8.16
2024-04-10T04:45:17.480Z,8.09
2024-04-10T04:46:17.507Z,8.18
2024-04-10T04:47:18.557Z,8.16
2024-04-10T04:48:17.747Z,8.20
2024-04-10T04:49:17.492Z,8.09
2024-04-10T04:50:17.441Z,8.18
2024-04-10T04:51:17.431Z,8.13
2024-04-10T04:52:17.418Z,8.16
2024-04-10T04:53:18.463Z,8.13
2024-04-10T04:54:17.447Z,8.18
2024-04-10T04:55:17.445Z,8.27
2024-04-10T04:56:17.459Z,8.15
2024-04-10T04:57:17.387Z,8.12
2024-04-10T04:58:17.467Z,8.10
2024-04-10T04:59:17.574Z,8.19
2024-04-10T05:00:17.383Z,8.12
2024-04-10T05:01:17.391Z,8.09
2024-04-10T05:02:17.449Z,8.12
2024-04-10T05:03:17.505Z,8.09
2024-04-10T05:04:17.403Z,8.18
2024-04-10T05:05:17.470Z,8.03
2024-04-10T05:06:19.541Z,8.13
2024-04-10T05:07:18.349Z,8.01
2024-04-10T05:08:17.345Z,8.08
2024-04-10T05:09:17.293Z,8.09
2024-04-10T05:10:17.315Z,8.09
2024-04-10T05:11:17.343Z,8.00
2024-04-10T05:12:17.500Z,8.00
2024-04-10T05:13:17.262Z,7.95
2024-04-10T05:14:17.310Z,7.95
2024-04-10T05:15:17.272Z,8.03
2024-04-10T05:16:17.254Z,8.06
2024-04-10T05:17:17.364Z,8.06
2024-04-10T05:18:17.235Z,8.03
2024-04-10T05:19:17.224Z,8.15
2024-04-10T05:20:18.572Z,8.00
2024-04-10T05:21:17.207Z,8.01
2024-04-10T05:22:17.225Z,8.01
2024-04-10T05:23:17.384Z,8.06
2024-04-10T05:24:17.176Z,8.01
2024-04-10T05:25:17.164Z,8.13
2024-04-10T05:26:17.215Z,8.06
2024-04-10T05:27:17.191Z,8.03
2024-04-10T05:28:17.138Z,8.01
2024-04-10T05:29:17.176Z,8.03
2024-04-10T05:30:17.127Z,8.06
2024-04-10T05:31:17.141Z,8.03
2024-04-10T05:32:17.129Z,8.03
2024-04-10T05:33:17.167Z,8.10
2024-04-10T05:34:17.317Z,8.06
2024-04-10T05:35:17.262Z,8.01
2024-04-10T05:36:17.105Z,7.95
2024-04-10T05:37:17.064Z,7.95
2024-04-10T05:38:17.119Z,8.01
2024-04-10T05:39:17.056Z,7.94
2024-04-10T05:40:17.129Z,7.97
2024-04-10T05:41:17.723Z,7.94
2024-04-10T05:42:18.038Z,7.98
2024-04-10T05:43:17.037Z,8.00
2024-04-10T05:44:17.049Z,8.01
2024-04-10T05:45:17.030Z,7.98
2024-04-10T05:46:17.064Z,8.01
2024-04-10T05:47:17.020Z,8.08
2024-04-10T05:48:17.151Z,8.00
2024-04-10T05:49:16.975Z,8.12
2024-04-10T05:50:17.071Z,7.94
2024-04-10T05:51:17.001Z,8.03
2024-04-10T05:52:16.955Z,8.03
2024-04-10T05:53:17.067Z,8.12
2024-04-10T05:54:16.931Z,8.03
2024-04-10T05:55:17.041Z,8.12
2024-04-10T05:56:17.012Z,8.12
2024-04-10T05:57:16.911Z,8.16
2024-04-10T05:58:16.898Z,8.33
2024-04-10T05:59:17.935Z,8.49
2024-04-10T06:00:16.926Z,8.53
2024-04-10T06:01:16.917Z,8.63
2024-04-10T06:02:17.027Z,8.74
2024-04-10T06:03:16.985Z,8.88
2024-04-10T06:04:16.919Z,9.00
2024-04-10T06:05:17.031Z,9.13
2024-04-10T06:06:16.846Z,9.16
2024-04-10T06:07:16.825Z,9.18
2024-04-10T06:08:50.359Z,9.21
2024-04-10T06:09:16.859Z,9.26
2024-04-10T06:10:16.806Z,9.23
2024-04-10T06:11:16.973Z,9.39
2024-04-10T06:12:16.917Z,9.56
2024-04-10T06:13:16.794Z,9.65
2024-04-10T06:14:16.852Z,9.73
2024-04-10T06:15:16.786Z,9.79
2024-04-10T06:16:16.786Z,9.84
2024-04-10T06:17:16.804Z,9.95
2024-04-10T06:18:16.868Z,9.87
2024-04-10T06:19:16.768Z,9.86
2024-04-10T06:20:16.785Z,9.98
2024-04-10T06:21:16.750Z,9.92
2024-04-10T06:22:18.899Z,10.16
2024-04-10T06:23:17.785Z,10.17
2024-04-10T06:24:16.701Z,10.25
2024-04-10T06:25:16.694Z,10.41
2024-04-10T06:26:16.767Z,10.37
2024-04-10T06:27:16.688Z,10.53
2024-04-10T06:28:16.707Z,10.56
2024-04-10T06:29:16.732Z,10.53
2024-04-10T06:30:16.667Z,10.51
2024-04-10T06:31:16.660Z,10.63
2024-04-10T06:32:17.123Z,10.49
2024-04-10T06:33:16.784Z,10.46
2024-04-10T06:34:16.771Z,10.54
2024-04-10T06:35:16.648Z,10.57
2024-04-10T06:36:16.638Z,10.60
2024-04-10T06:37:16.661Z,10.56
2024-04-10T06:38:16.629Z,10.76
2024-04-10T06:39:16.593Z,10.87
2024-04-10T06:40:16.590Z,10.90
2024-04-10T06:41:16.677Z,10.96
2024-04-10T06:42:16.595Z,10.96
2024-04-10T06:43:16.568Z,11.04
2024-04-10T06:44:16.618Z,11.00
2024-04-10T06:45:16.563Z,11.02
2024-04-10T06:46:16.553Z,10.97
2024-04-10T06:47:16.673Z,11.07
2024-04-10T06:48:16.644Z,11.17
2024-04-10T06:49:16.683Z,11.30
2024-04-10T06:50:16.583Z,11.32
2024-04-10T06:51:16.540Z,11.43
2024-04-10T06:52:16.681Z,11.50
2024-04-10T06:53:16.627Z,11.50
2024-04-10T06:54:19.318Z,11.62
2024-04-10T06:55:17.520Z,11.70
2024-04-10T06:56:16.672Z,11.70
2024-04-10T06:57:17.567Z,11.80
2024-04-10T06:58:16.453Z,11.84
2024-04-10T06:59:16.485Z,11.91
2024-04-10T07:00:16.443Z,12.00
2024-04-10T07:01:17.034Z,12.12
2024-04-10T07:02:16.446Z,12.15
2024-04-10T07:03:16.443Z,12.03
2024-04-10T07:04:16.466Z,12.09
2024-04-10T07:05:16.471Z,12.20
2024-04-10T07:06:17.108Z,12.24
2024-04-10T07:07:16.392Z,12.27
2024-04-10T07:08:16.454Z,12.31
2024-04-10T07:09:16.391Z,12.50
2024-04-10T07:10:17.447Z,12.58
2024-04-10T07:11:20.186Z,12.73
2024-04-10T07:12:17.465Z,12.95
2024-04-10T07:13:16.352Z,12.90
2024-04-10T07:14:16.362Z,12.82
2024-04-10T07:15:16.360Z,13.01
2024-04-10T07:16:16.356Z,13.01
2024-04-10T07:17:16.414Z,12.97
2024-04-10T07:18:16.407Z,12.85
2024-04-10T07:19:16.303Z,12.97
2024-04-10T07:20:16.359Z,13.31
2024-04-10T07:21:16.294Z,13.35
2024-04-10T07:22:16.271Z,13.57
2024-04-10T07:23:16.297Z,13.38
2024-04-10T07:24:16.264Z,12.98
2024-04-10T07:25:16.386Z,12.85
2024-04-10T07:26:16.296Z,12.73
2024-04-10T07:27:16.229Z,12.75
2024-04-10T07:28:16.216Z,12.67
2024-04-10T07:29:16.277Z,12.62
2024-04-10T07:30:16.230Z,12.75
2024-04-10T07:31:16.203Z,12.80
2024-04-10T07:32:16.304Z,12.58
2024-04-10T07:33:16.296Z,12.50
2024-04-10T07:34:16.421Z,12.40
2024-04-10T07:35:16.190Z,12.29
2024-04-10T07:36:16.155Z,12.06
2024-04-10T07:37:16.146Z,12.04
2024-04-10T07:38:16.163Z,11.99
2024-04-10T07:39:16.157Z,12.07
2024-04-10T07:40:16.135Z,12.29
2024-04-10T07:41:16.201Z,12.31
2024-04-10T07:42:16.109Z,12.49
2024-04-10T07:43:16.097Z,12.45
2024-04-10T07:44:16.193Z,12.22
2024-04-10T07:45:16.088Z,12.12
2024-04-10T07:46:16.081Z,11.81
2024-04-10T07:47:16.286Z,11.84
2024-04-10T07:48:16.176Z,11.86
2024-04-10T07:49:16.164Z,12.03
2024-04-10T07:50:17.079Z,12.13
2024-04-10T07:51:16.042Z,12.02
2024-04-10T07:52:16.025Z,12.40
2024-04-10T07:53:16.105Z,12.45
2024-04-10T07:54:16.061Z,12.09
2024-04-10T07:55:16.000Z,11.81
2024-04-10T07:56:16.104Z,11.65
2024-04-10T07:57:15.992Z,11.48
2024-04-10T07:58:16.011Z,11.65
2024-04-10T07:59:16.082Z,11.75
2024-04-10T08:00:15.985Z,12.13
2024-04-10T08:01:15.986Z,12.25
2024-04-10T08:02:15.983Z,12.37
2024-04-10T08:03:16.026Z,12.36
2024-04-10T08:04:15.988Z,12.50
2024-04-10T08:05:15.952Z,12.47
2024-04-10T08:06:15.963Z,12.62
2024-04-10T08:07:15.935Z,12.83
2024-04-10T08:08:15.973Z,12.55
2024-04-10T08:09:15.896Z,12.29
2024-04-10T08:10:15.881Z,12.42
2024-04-10T08:11:16.490Z,12.72
2024-04-10T08:12:16.082Z,12.79
2024-04-10T08:13:15.893Z,12.80
2024-04-10T08:14:15.916Z,12.90
2024-04-10T08:15:15.834Z,13.27
2024-04-10T08:16:17.294Z,13.20
2024-04-10T08:17:16.087Z,13.01
2024-04-10T08:18:15.888Z,12.54
2024-04-10T08:19:15.839Z,12.58
2024-04-10T08:20:15.840Z,12.94
2024-04-10T08:21:16.096Z,13.05
2024-04-10T08:22:15.820Z,12.86
2024-04-10T08:23:15.855Z,12.65
2024-04-10T08:24:15.763Z,12.57
2024-04-10T08:25:15.755Z,12.46
2024-04-10T08:26:15.862Z,12.32
2024-04-10T08:27:15.797Z,12.36
2024-04-10T08:28:15.742Z,12.53
2024-04-10T08:29:15.762Z,12.79
2024-04-10T08:30:15.721Z,12.97
2024-04-10T08:31:15.737Z,12.80
2024-04-10T08:32:15.760Z,12.67
2024-04-10T08:33:15.780Z,12.94
2024-04-10T08:34:15.837Z,13.25
2024-04-10T08:35:15.803Z,13.63
2024-04-10T08:36:15.821Z,13.86
2024-04-10T08:37:15.665Z,13.85
2024-04-10T08:38:15.751Z,13.68
2024-04-10T08:39:15.655Z,13.92
2024-04-10T08:40:15.692Z,13.18
2024-04-10T08:41:15.660Z,12.49
2024-04-10T08:42:15.662Z,12.46
2024-04-10T08:43:15.789Z,12.28
2024-04-10T08:44:15.609Z,11.86
2024-04-10T08:45:16.732Z,11.70
2024-04-10T08:46:16.622Z,11.63
2024-04-10T08:47:15.763Z,11.81
2024-04-10T08:48:15.700Z,11.75
2024-04-10T08:49:15.692Z,12.04
2024-04-10T08:50:15.600Z,12.21
2024-04-10T08:51:15.681Z,12.31
2024-04-10T08:52:15.559Z,12.68
2024-04-10T08:53:15.569Z,12.85
2024-04-10T08:54:15.589Z,12.82
2024-04-10T08:55:15.590Z,13.00
2024-04-10T08:56:15.566Z,13.03
2024-04-10T08:57:15.550Z,13.01
2024-04-10T08:58:48.905Z,12.87
2024-04-10T08:59:15.519Z,12.90
2024-04-10T09:00:15.596Z,12.85
2024-04-10T09:01:15.548Z,13.04
2024-04-10T09:02:15.470Z,12.94
2024-04-10T09:03:15.638Z,12.79
2024-04-10T09:04:15.640Z,13.15
2024-04-10T09:05:15.585Z,13.08
2024-04-10T09:06:15.490Z,13.16
2024-04-10T09:07:15.460Z,13.47
2024-04-10T09:08:15.431Z,13.39
2024-04-10T09:09:15.500Z,13.13
2024-04-10T09:10:15.432Z,13.52
2024-04-10T09:11:15.427Z,13.67
2024-04-10T09:12:15.393Z,13.92
2024-04-10T09:13:15.386Z,13.70
2024-04-10T09:14:16.589Z,13.71
2024-04-10T09:15:15.439Z,13.65
2024-04-10T09:16:15.379Z,13.54
2024-04-10T09:17:15.366Z,13.47
2024-04-10T09:18:15.361Z,13.52
2024-04-10T09:19:15.417Z,13.28
2024-04-10T09:20:15.342Z,13.16
2024-04-10T09:21:15.321Z,13.28
2024-04-10T09:22:15.325Z,13.54
2024-04-10T09:23:15.350Z,13.92
2024-04-10T09:24:15.524Z,14.20
2024-04-10T09:25:15.399Z,14.45
2024-04-10T09:26:15.342Z,14.60
2024-04-10T09:27:15.288Z,14.50
2024-04-10T09:28:15.308Z,14.11
2024-04-10T09:29:16.358Z,14.29
2024-04-10T09:30:15.256Z,14.32
2024-04-10T09:31:15.252Z,14.00
2024-04-10T09:32:15.326Z,14.07
2024-04-10T09:33:15.732Z,14.48
2024-04-10T09:34:15.424Z,14.48
2024-04-10T09:35:15.297Z,14.26
2024-04-10T09:36:15.209Z,13.95
2024-04-10T09:37:15.195Z,13.38
2024-04-10T09:38:15.237Z,13.59
2024-04-10T09:39:15.176Z,13.53
2024-04-10T09:40:15.165Z,13.71
2024-04-10T09:41:15.207Z,13.56
2024-04-10T09:42:15.175Z,13.15
2024-04-10T09:43:15.185Z,13.11
2024-04-10T09:44:15.226Z,13.31
2024-04-10T09:45:15.177Z,13.53
2024-04-10T09:46:15.153Z,13.86
2024-04-10T09:47:15.209Z,13.89
2024-04-10T09:48:16.243Z,14.05
2024-04-10T09:49:15.222Z,14.12
2024-04-10T09:50:15.158Z,14.12
2024-04-10T09:51:15.139Z,14.22
2024-04-10T09:52:15.112Z,14.32
2024-04-10T09:53:15.147Z,14.26
2024-04-10T09:54:15.095Z,14.23
2024-04-10T09:55:15.083Z,14.44
2024-04-10T09:56:15.118Z,14.73
2024-04-10T09:57:15.074Z,15.11
2024-04-10T09:58:15.185Z,15.54
2024-04-10T09:59:15.953Z,14.99
2024-04-10T10:00:15.055Z,15.19
2024-04-10T10:01:15.089Z,15.68
2024-04-10T10:02:15.099Z,15.84
2024-04-10T10:03:15.157Z,15.68
2024-04-10T10:04:15.024Z,15.62
2024-04-10T10:05:15.034Z,15.65
2024-04-10T10:06:15.042Z,15.17
2024-04-10T10:07:15.004Z,14.62
2024-04-10T10:08:15.137Z,14.40
2024-04-10T10:09:14.957Z,14.35
2024-04-10T10:10:14.993Z,14.25
2024-04-10T10:11:15.068Z,14.26
2024-04-10T10:12:14.978Z,14.25
2024-04-10T10:13:14.923Z,14.37
2024-04-10T10:14:14.997Z,14.54
2024-04-10T10:15:14.910Z,14.37
2024-04-10T10:16:15.041Z,14.32
2024-04-10T10:17:14.942Z,14.25
2024-04-10T10:18:18.584Z,13.87
2024-04-10T10:19:17.000Z,13.95
2024-04-10T10:20:14.937Z,14.62
2024-04-10T10:21:14.896Z,14.03
2024-04-10T10:22:14.855Z,14.23
2024-04-10T10:23:14.891Z,14.41
2024-04-10T10:24:14.970Z,14.55
2024-04-10T10:25:14.869Z,14.29
2024-04-10T10:26:14.856Z,14.23
2024-04-10T10:27:14.878Z,14.07
2024-04-10T10:28:14.830Z,13.71
2024-04-10T10:29:16.798Z,13.81
2024-04-10T10:30:15.880Z,14.04
2024-04-10T10:31:14.790Z,14.23
2024-04-10T10:32:14.856Z,14.54
2024-04-10T10:33:14.860Z,15.35
2024-04-10T10:34:16.560Z,16.08
2024-04-10T10:35:18.750Z,16.38
2024-04-10T10:36:14.812Z,16.72
2024-04-10T10:37:17.156Z,16.91
2024-04-10T10:38:15.807Z,17.23
2024-04-10T10:39:16.688Z,17.01
2024-04-10T10:40:14.718Z,17.09
2024-04-10T10:41:18.704Z,17.15
2024-04-10T10:42:15.800Z,17.36
2024-04-10T10:43:14.701Z,17.56
2024-04-10T10:44:14.756Z,17.08
2024-04-10T10:45:14.676Z,17.29
2024-04-10T10:46:14.691Z,17.57
2024-04-10T10:47:14.721Z,17.52
2024-04-10T10:48:14.776Z,17.22
2024-04-10T10:49:14.755Z,16.71
2024-04-10T10:50:14.698Z,15.57
2024-04-10T10:51:14.649Z,15.03
2024-04-10T10:52:14.624Z,14.51
2024-04-10T10:53:14.720Z,14.45
2024-04-10T10:54:14.611Z,14.37
2024-04-10T10:55:14.618Z,14.60
2024-04-10T10:56:14.647Z,14.59
2024-04-10T10:57:14.592Z,14.58
2024-04-10T10:58:14.620Z,14.50
2024-04-10T10:59:14.591Z,14.60
2024-04-10T11:00:14.568Z,14.59
2024-04-10T11:01:14.634Z,14.08
2024-04-10T11:02:14.689Z,13.90
2024-04-10T11:03:20.840Z,13.86
2024-04-10T11:04:15.811Z,13.93
2024-04-10T11:05:14.682Z,14.00
2024-04-10T11:06:14.754Z,13.86
2024-04-10T11:07:14.543Z,13.86
2024-04-10T11:08:14.554Z,14.10
2024-04-10T11:09:14.585Z,14.41
2024-04-10T11:10:14.535Z,14.40
2024-04-10T11:11:14.577Z,14.50
2024-04-10T11:12:14.589Z,14.70
2024-04-10T11:13:14.478Z,14.88
2024-04-10T11:14:14.555Z,15.33
2024-04-10T11:15:14.457Z,15.90
2024-04-10T11:16:14.504Z,16.38
2024-04-10T11:17:14.559Z,16.56
2024-04-10T11:18:14.521Z,16.32
2024-04-10T11:19:14.423Z,16.28
2024-04-10T11:20:14.451Z,16.16
2024-04-10T11:21:14.429Z,16.26
2024-04-10T11:22:14.424Z,16.08
2024-04-10T11:23:14.392Z,15.77
2024-04-10T11:24:14.388Z,15.65
2024-04-10T11:25:14.374Z,15.79
2024-04-10T11:26:14.515Z,15.88
2024-04-10T11:27:14.361Z,15.70
2024-04-10T11:28:14.461Z,15.00
2024-04-10T11:29:14.378Z,14.97
2024-04-10T11:30:14.333Z,15.10
2024-04-10T11:31:14.351Z,15.28
2024-04-10T11:32:14.407Z,14.88
2024-04-10T11:33:14.678Z,14.48
2024-04-10T11:34:14.574Z,14.44
2024-04-10T11:35:14.355Z,14.92
2024-04-10T11:36:14.343Z,15.21
2024-04-10T11:37:14.287Z,15.36
2024-04-10T11:38:14.316Z,15.03
2024-04-10T11:39:14.328Z,15.06
2024-04-10T11:40:14.335Z,14.91
2024-04-10T11:41:14.317Z,14.92
2024-04-10T11:42:14.266Z,14.84
2024-04-10T11:43:14.227Z,15.09
2024-04-10T11:44:14.277Z,15.04
2024-04-10T11:45:14.259Z,14.63
2024-04-10T11:46:14.196Z,14.43
2024-04-10T11:47:14.327Z,14.35
2024-04-10T11:48:14.299Z,14.35
2024-04-10T11:49:14.329Z,14.32
2024-04-10T11:50:14.978Z,14.07
2024-04-10T11:51:14.160Z,14.36
2024-04-10T11:52:14.177Z,14.58
2024-04-10T11:53:14.195Z,14.62
2024-04-10T11:54:14.174Z,15.15
2024-04-10T11:55:14.172Z,15.62
2024-04-10T11:56:14.309Z,15.46
2024-04-10T11:57:14.133Z,15.21
2024-04-10T11:58:14.149Z,15.36
2024-04-10T11:59:14.284Z,15.52
2024-04-10T12:00:14.166Z,15.55
2024-04-10T12:01:14.092Z,15.57
2024-04-10T12:02:14.133Z,15.52
2024-04-10T12:03:14.188Z,15.54
2024-04-10T12:04:14.221Z,15.58
2024-04-10T12:05:14.396Z,15.72
2024-04-10T12:06:14.145Z,15.75
2024-04-10T12:07:14.039Z,15.72
2024-04-10T12:08:14.090Z,15.59
2024-04-10T12:09:14.119Z,15.54
2024-04-10T12:10:14.019Z,15.62
2024-04-10T12:11:14.203Z,15.84
2024-04-10T12:12:15.092Z,16.21
2024-04-10T12:13:14.050Z,16.51
2024-04-10T12:14:14.048Z,16.64
2024-04-10T12:15:13.972Z,16.71
2024-04-10T12:16:13.978Z,16.64
2024-04-10T12:17:14.191Z,16.43
2024-04-10T12:18:14.041Z,16.38
2024-04-10T12:19:13.971Z,16.41
2024-04-10T12:20:13.985Z,16.57
2024-04-10T12:21:13.990Z,16.78
2024-04-10T12:22:13.931Z,16.97
2024-04-10T12:23:14.050Z,17.24
2024-04-10T12:24:13.947Z,17.24
2024-04-10T12:25:13.898Z,16.97
2024-04-10T12:26:13.948Z,16.99
2024-04-10T12:27:13.915Z,16.99
2024-04-10T12:28:13.924Z,16.68
2024-04-10T12:29:13.900Z,16.42
2024-04-10T12:30:13.944Z,16.28
2024-04-10T12:31:13.897Z,16.28
2024-04-10T12:32:14.073Z,16.32
2024-04-10T12:33:14.051Z,16.41
2024-04-10T12:34:13.964Z,16.50
2024-04-10T12:35:13.894Z,16.58
2024-04-10T12:36:13.895Z,16.42
2024-04-10T12:37:13.849Z,16.35
2024-04-10T12:38:13.890Z,16.24
2024-04-10T12:39:13.788Z,16.31
2024-04-10T12:40:13.814Z,16.36
2024-04-10T12:41:13.823Z,16.51
2024-04-10T12:42:13.846Z,16.75
2024-04-10T12:43:13.772Z,16.69
2024-04-10T12:44:13.774Z,16.65
2024-04-10T12:45:13.809Z,16.75
2024-04-10T12:46:13.832Z,16.38
2024-04-10T12:47:13.776Z,16.61
2024-04-10T12:48:13.860Z,16.58
2024-04-10T12:49:13.714Z,16.76
2024-04-10T12:50:13.798Z,16.81
2024-04-10T12:51:13.738Z,16.71
2024-04-10T12:52:13.724Z,16.64
2024-04-10T12:53:13.713Z,16.31
2024-04-10T12:54:13.668Z,16.09
2024-04-10T12:55:13.760Z,15.97
2024-04-10T12:56:13.887Z,15.73
2024-04-10T12:57:13.662Z,15.47
2024-04-10T12:58:13.659Z,15.49
2024-04-10T12:59:14.446Z,15.46
2024-04-10T13:00:13.710Z,15.57
2024-04-10T13:01:13.750Z,15.62
2024-04-10T13:02:13.709Z,15.61
2024-04-10T13:03:13.674Z,15.58
2024-04-10T13:04:13.709Z,15.52
2024-04-10T13:05:13.800Z,15.61